Terminal Aerodrome Forecast
Issued by NWS

Home | Current Version | Previous Version | Graphics & Text | Print | Product List | Glossary On
Versions: 1 2 3 4 5 6 7 8 9 10 11 12 13
000
FTUS43 KICT 012329
TAFCNU
TAF
KCNU 012329Z 0200/0224 VRB03KT P6SM BKN150
     FM021000 16007KT P6SM SCT150
     FM021700 18012KT P6SM SCT060=

USA.gov is the U.S. government's official web portal to all federal, state and local government web resources and services.